createdAt,value
2019-04-05T00:00:48.798Z,138.27
2019-04-05T00:03:17.080Z,134.83
2019-04-05T00:05:45.467Z,136.60
2019-04-05T00:08:13.806Z,129.00
2019-04-05T00:10:42.142Z,133.90
2019-04-05T00:13:10.433Z,140.10
2019-04-05T00:15:38.720Z,131.63
2019-04-05T00:18:06.996Z,142.17
2019-04-05T00:20:35.283Z,130.55
2019-04-05T00:23:03.576Z,150.10
2019-04-05T00:25:31.843Z,150.43
2019-04-05T00:28:00.127Z,135.10
2019-04-05T00:30:28.396Z,141.80
2019-04-05T00:32:56.683Z,140.85
2019-04-05T00:35:24.963Z,158.07
2019-04-05T00:37:53.257Z,144.95
2019-04-05T00:40:21.542Z,145.35
2019-04-05T00:42:49.845Z,150.53
2019-04-05T00:45:27.496Z,131.67
2019-04-05T00:47:48.152Z,133.83
2019-04-05T00:50:16.554Z,148.68
2019-04-05T00:52:44.865Z,156.83
2019-04-05T00:55:13.139Z,142.60
2019-04-05T00:57:41.409Z,162.00
2019-04-05T01:00:09.937Z,149.53
2019-04-05T01:02:38.246Z,162.87
2019-04-05T01:05:42.487Z,152.37
2019-04-05T01:08:10.841Z,150.63
2019-04-05T01:10:39.111Z,158.97
2019-04-05T01:13:07.405Z,152.03
2019-04-05T01:15:41.163Z,151.43
2019-04-05T01:18:05.687Z,164.67
2019-04-05T01:21:09.822Z,150.53
2019-04-05T01:24:15.546Z,145.93
2019-04-05T01:27:21.265Z,149.13
2019-04-05T01:30:06.804Z,144.43
2019-04-05T01:32:35.088Z,156.07
2019-04-05T01:35:17.708Z,147.60
2019-04-05T01:38:23.917Z,144.00
2019-04-05T01:40:52.281Z,154.40
2019-04-05T01:43:20.724Z,144.10
2019-04-05T01:45:53.818Z,156.63
2019-04-05T01:48:19.121Z,157.03
2019-04-05T01:50:47.397Z,170.43
2019-04-05T01:53:15.690Z,168.17
2019-04-05T01:55:43.976Z,168.90
2019-04-05T01:58:12.256Z,153.27
2019-04-05T02:00:40.549Z,170.67
2019-04-05T02:03:08.848Z,164.13
2019-04-05T02:05:37.142Z,158.63
2019-04-05T02:08:05.604Z,174.87
2019-04-05T02:10:33.880Z,173.17
2019-04-05T02:13:02.164Z,156.57
2019-04-05T02:16:06.982Z,168.20
2019-04-05T02:18:35.373Z,170.90
2019-04-05T02:21:03.751Z,159.77
2019-04-05T02:23:32.029Z,152.73
2019-04-05T02:26:00.310Z,157.83
2019-04-05T02:28:28.588Z,172.55
2019-04-05T02:30:56.955Z,163.92
2019-04-05T02:33:25.236Z,167.40
2019-04-05T02:35:53.526Z,177.00
2019-04-05T02:38:21.791Z,168.30
2019-04-05T02:40:50.095Z,176.97
2019-04-05T02:43:54.446Z,167.87
2019-04-05T02:46:59.948Z,158.37
2019-04-05T02:50:03.892Z,171.53
2019-04-05T02:53:07.769Z,189.90
2019-04-05T02:55:36.206Z,176.03
2019-04-05T02:58:42.173Z,174.25
2019-04-05T03:01:10.473Z,183.80
2019-04-05T03:04:16.581Z,186.40
2019-04-05T03:10:41.736Z,180.12
2019-04-05T03:13:10.035Z,206.40
2019-04-05T03:15:38.389Z,186.20
2019-04-05T03:18:06.763Z,184.27
2019-04-05T03:20:35.047Z,181.13
2019-04-05T03:23:03.400Z,191.27
2019-04-05T03:25:31.863Z,193.93
2019-04-05T03:28:37.571Z,186.60
2019-04-05T03:31:43.310Z,192.47
2019-04-05T03:34:11.600Z,189.57
2019-04-05T03:36:40.050Z,182.30
2019-04-05T03:39:08.400Z,182.53
2019-04-05T03:42:14.271Z,191.76
2019-04-05T03:44:42.642Z,176.97
2019-04-05T03:47:10.938Z,187.75
2019-04-05T03:49:39.249Z,161.67
2019-04-05T03:52:07.516Z,172.67
2019-04-05T03:54:35.974Z,177.00
2019-04-05T03:57:40.302Z,161.82
2019-04-05T04:00:08.616Z,161.13
2019-04-05T04:02:36.963Z,164.87
2019-04-05T04:05:40.980Z,153.40
2019-04-05T04:08:09.249Z,146.70
2019-04-05T04:10:37.532Z,160.03
2019-04-05T04:13:05.820Z,152.82
2019-04-05T04:15:34.136Z,157.72
2019-04-05T04:18:40.284Z,152.32
2019-04-05T04:21:44.410Z,151.22
2019-04-05T04:24:12.702Z,151.83
2019-04-05T04:27:16.785Z,163.30
2019-04-05T04:29:45.119Z,154.57
2019-04-05T04:32:51.378Z,140.17
2019-04-05T04:35:19.782Z,143.77
2019-04-05T04:37:48.074Z,139.67
2019-04-05T04:40:16.348Z,139.37
2019-04-05T04:42:44.796Z,135.03
2019-04-05T04:45:13.208Z,133.15
2019-04-05T04:47:41.445Z,143.10
2019-04-05T04:50:43.705Z,136.57
2019-04-05T04:53:12.178Z,123.23
2019-04-05T04:55:40.525Z,127.67
2019-04-05T04:58:08.886Z,131.05
2019-04-05T05:01:10.652Z,138.50
2019-04-05T05:03:39.591Z,136.55
2019-04-05T05:06:07.981Z,139.30
2019-04-05T05:08:36.566Z,134.32
2019-04-05T05:11:14.328Z,139.40
2019-04-05T05:13:34.922Z,135.63
2019-04-05T05:16:03.231Z,136.92
2019-04-05T05:18:31.581Z,135.75
2019-04-05T05:21:00.035Z,125.92
2019-04-05T05:23:28.362Z,123.87
2019-04-05T05:25:56.655Z,141.20
2019-04-05T05:28:24.929Z,120.50
2019-04-05T05:30:53.200Z,127.23
2019-04-05T05:33:21.463Z,135.70
2019-04-05T05:35:49.866Z,131.70
2019-04-05T05:38:18.174Z,129.53
2019-04-05T05:40:46.466Z,128.70
2019-04-05T05:43:14.731Z,128.43
2019-04-05T05:45:43.030Z,132.57
2019-04-05T05:48:11.300Z,147.40
2019-04-05T05:50:39.656Z,136.73
2019-04-05T05:53:07.931Z,130.50
2019-04-05T05:55:36.211Z,141.33
2019-04-05T05:58:04.489Z,142.10
2019-04-05T06:00:32.775Z,142.50
2019-04-05T06:03:01.051Z,151.50
2019-04-05T06:05:29.373Z,147.13
2019-04-05T06:07:58.737Z,162.45
2019-04-05T06:10:27.664Z,154.18
2019-04-05T06:12:58.636Z,159.63
2019-04-05T06:15:25.935Z,161.13
2019-04-05T06:18:04.150Z,158.50
2019-04-05T06:20:24.221Z,152.83
2019-04-05T06:22:52.512Z,150.32
2019-04-05T06:25:20.796Z,151.32
2019-04-05T06:27:49.074Z,145.20
2019-04-05T06:30:17.422Z,150.10
2019-04-05T06:32:45.723Z,146.73
2019-04-05T06:35:13.981Z,139.50
2019-04-05T06:37:42.262Z,140.50
2019-04-05T06:40:10.621Z,141.82
2019-04-05T06:42:38.933Z,137.77
2019-04-05T06:45:07.382Z,140.00
2019-04-05T06:47:35.657Z,140.00
2019-04-05T06:50:39.866Z,126.70
2019-04-05T06:53:08.147Z,128.70
2019-04-05T06:55:36.420Z,129.60
2019-04-05T06:58:04.706Z,134.80
2019-04-05T07:00:33.009Z,133.43
2019-04-05T07:03:01.295Z,129.63
2019-04-05T07:05:29.582Z,119.30
2019-04-05T07:07:57.859Z,122.67
2019-04-05T07:10:26.130Z,113.30
2019-04-05T07:12:54.455Z,113.17
2019-04-05T07:15:22.765Z,109.20
2019-04-05T07:17:51.064Z,97.70
2019-04-05T07:20:19.337Z,118.33
2019-04-05T07:25:54.175Z,97.23
2019-04-05T07:28:25.003Z,97.70
2019-04-05T07:30:52.477Z,80.40
2019-04-05T07:33:20.723Z,96.67
2019-04-05T07:35:49.015Z,95.27
2019-04-05T07:38:17.297Z,90.70
2019-04-05T07:40:45.605Z,89.80
2019-04-05T07:43:13.863Z,87.70
2019-04-05T07:45:42.134Z,90.43
2019-04-05T07:48:10.421Z,88.27
2019-04-05T07:50:38.715Z,85.80
2019-04-05T07:53:07.007Z,89.47
2019-04-05T07:55:35.283Z,91.63
2019-04-05T07:58:03.566Z,87.40
2019-04-05T08:01:05.091Z,85.80
2019-04-05T08:04:09.038Z,88.90
2019-04-05T08:07:14.681Z,81.43
2019-04-05T08:09:42.972Z,85.73
2019-04-05T08:12:11.252Z,84.53
2019-04-05T08:15:16.774Z,84.47
2019-04-05T08:17:45.044Z,95.43
2019-04-05T08:20:13.388Z,88.80
2019-04-05T08:22:41.656Z,98.00
2019-04-05T08:25:10.036Z,91.87
2019-04-05T08:27:38.296Z,87.53
2019-04-05T08:30:40.416Z,95.95
2019-04-05T08:33:08.731Z,87.80
2019-04-05T08:35:36.994Z,91.50
2019-04-05T08:38:41.397Z,93.30
2019-04-05T08:41:09.686Z,91.00
2019-04-05T08:43:37.971Z,91.83
2019-04-05T08:46:06.326Z,87.97
2019-04-05T08:48:34.580Z,79.37
2019-04-05T08:53:50.314Z,94.15
2019-04-05T08:56:18.578Z,85.37
2019-04-05T08:58:46.877Z,83.42
2019-04-05T09:01:15.154Z,81.80
2019-04-05T09:03:43.691Z,87.10
2019-04-05T09:06:12.044Z,90.33
2019-04-05T09:08:40.319Z,81.82
2019-04-05T09:11:08.590Z,80.40
2019-04-05T09:13:36.878Z,88.27
2019-04-05T09:16:05.159Z,75.93
2019-04-05T09:18:33.474Z,81.97
2019-04-05T09:21:01.720Z,78.43
2019-04-05T09:23:29.991Z,79.83
2019-04-05T09:25:58.265Z,74.20
2019-04-05T09:28:26.536Z,75.65
2019-04-05T09:30:54.794Z,83.73
2019-04-05T09:33:23.068Z,93.10
2019-04-05T09:35:51.341Z,72.57
2019-04-05T09:38:19.617Z,80.20
2019-04-05T09:40:47.910Z,81.13
2019-04-05T09:43:16.182Z,81.97
2019-04-05T09:45:44.446Z,74.90
2019-04-05T09:48:12.721Z,91.03
2019-04-05T09:50:41.015Z,90.47
2019-04-05T09:53:09.300Z,79.00
2019-04-05T09:55:37.647Z,86.00
2019-04-05T09:58:05.993Z,75.13
2019-04-05T10:00:34.267Z,91.12
2019-04-05T10:03:02.560Z,83.77
2019-04-05T10:05:30.852Z,83.63
2019-04-05T10:07:59.109Z,86.33
2019-04-05T10:10:27.404Z,80.70
2019-04-05T10:12:55.676Z,83.73
2019-04-05T10:15:23.938Z,85.37
2019-04-05T10:17:52.206Z,89.28
2019-04-05T10:20:20.558Z,84.33
2019-04-05T10:22:48.837Z,96.33
2019-04-05T10:25:17.113Z,88.97
2019-04-05T10:27:45.388Z,83.70
2019-04-05T10:30:13.868Z,81.78
2019-04-05T10:32:42.142Z,85.77
2019-04-05T10:35:10.491Z,76.23
2019-04-05T10:37:38.760Z,77.87
2019-04-05T10:40:42.778Z,77.40
2019-04-05T10:43:11.064Z,80.00
2019-04-05T10:45:39.330Z,79.30
2019-04-05T10:48:07.614Z,81.53
2019-04-05T10:50:35.894Z,80.53
2019-04-05T10:53:04.189Z,70.10
2019-04-05T10:55:32.479Z,75.70
2019-04-05T10:58:00.753Z,69.70
2019-04-05T11:01:02.975Z,73.77
2019-04-05T11:03:31.256Z,73.50
2019-04-05T11:05:59.538Z,75.47
2019-04-05T11:08:27.810Z,78.50
2019-04-05T11:10:56.075Z,76.28
2019-04-05T11:13:24.340Z,76.27
2019-04-05T11:15:52.615Z,79.93
2019-04-05T11:18:20.884Z,68.30
2019-04-05T11:20:49.828Z,77.23
2019-04-05T11:23:21.384Z,76.17
2019-04-05T11:25:49.157Z,80.27
2019-04-05T11:28:17.446Z,70.27
2019-04-05T11:31:23.413Z,75.73
2019-04-05T11:33:51.746Z,75.60
2019-04-05T11:36:20.190Z,70.83
2019-04-05T11:38:50.878Z,74.13
2019-04-05T11:41:56.095Z,70.87
2019-04-05T11:45:01.928Z,69.97
2019-04-05T11:48:07.598Z,69.55
2019-04-05T11:50:35.947Z,77.03
2019-04-05T11:53:04.292Z,69.80
2019-04-05T11:55:32.561Z,69.45
2019-04-05T11:58:00.832Z,71.05
2019-04-05T12:00:48.216Z,65.57
2019-04-05T12:06:04.102Z,70.12
2019-04-05T12:08:32.321Z,72.97
2019-04-05T12:11:00.612Z,74.07
2019-04-05T12:13:28.901Z,71.53
2019-04-05T12:15:58.274Z,69.27
2019-04-05T12:18:27.162Z,67.07
2019-04-05T12:20:59.982Z,70.10
2019-04-05T12:23:25.414Z,73.90
2019-04-05T12:25:54.737Z,65.83
2019-04-05T12:28:23.692Z,69.63
2019-04-05T12:30:51.981Z,70.93
2019-04-05T12:33:20.464Z,75.08
2019-04-05T12:35:52.498Z,74.37
2019-04-05T12:38:39.400Z,70.93
2019-04-05T12:41:10.804Z,70.30
2019-04-05T12:43:37.700Z,69.10
2019-04-05T12:46:06.073Z,74.97
2019-04-05T12:48:34.356Z,69.12
2019-04-05T12:51:05.285Z,70.97
2019-04-05T12:53:32.775Z,70.20
2019-04-05T12:56:01.120Z,71.70
2019-04-05T12:58:32.469Z,77.27
2019-04-05T13:00:59.509Z,70.30
2019-04-05T13:03:27.824Z,69.20
2019-04-05T13:05:57.250Z,67.80
2019-04-05T13:08:26.154Z,67.03
2019-04-05T13:10:55.998Z,69.50
2019-04-05T13:13:26.627Z,71.87
2019-04-05T13:15:54.415Z,68.67
2019-04-05T13:18:24.947Z,69.30
2019-04-05T13:20:52.765Z,75.13
2019-04-05T13:23:21.101Z,69.43
2019-04-05T13:25:49.371Z,66.65
2019-04-05T13:28:18.991Z,73.07
2019-04-05T13:30:48.589Z,74.93
2019-04-05T13:33:17.713Z,74.27
2019-04-05T13:35:45.986Z,71.07
2019-04-05T13:38:14.287Z,81.77
2019-04-05T13:40:42.570Z,70.00
2019-04-05T13:43:10.845Z,66.10
2019-04-05T13:45:39.164Z,67.53
2019-04-05T13:48:09.075Z,63.70
2019-04-05T13:50:37.434Z,63.13
2019-04-05T13:53:05.748Z,59.70
2019-04-05T13:55:34.100Z,54.90
2019-04-05T13:58:02.379Z,55.33
2019-04-05T14:00:30.746Z,63.67
2019-04-05T14:02:59.020Z,56.87
2019-04-05T14:05:27.296Z,56.60
2019-04-05T14:08:09.139Z,57.43
2019-04-05T14:10:25.918Z,60.00
2019-04-05T14:12:54.207Z,57.10
2019-04-05T14:15:22.492Z,69.25
2019-04-05T14:17:50.768Z,68.85
2019-04-05T14:20:19.830Z,70.52
2019-04-05T14:22:51.435Z,69.90
2019-04-05T14:25:19.381Z,68.87
2019-04-05T14:27:47.667Z,67.30
2019-04-05T14:30:55.979Z,62.87
2019-04-05T14:33:24.725Z,64.80
2019-04-05T14:35:54.660Z,69.43
2019-04-05T14:38:24.322Z,76.05
2019-04-05T14:40:52.633Z,70.03
2019-04-05T14:43:21.396Z,61.80
2019-04-05T14:45:50.933Z,71.10
2019-04-05T14:48:19.203Z,68.80
2019-04-05T14:50:47.479Z,74.73
2019-04-05T14:53:15.753Z,67.67
2019-04-05T14:55:44.069Z,71.20
2019-04-05T14:58:12.355Z,68.90
2019-04-05T15:00:40.654Z,67.30
2019-04-05T15:03:08.994Z,70.17
2019-04-05T15:05:37.295Z,70.07
2019-04-05T15:08:05.576Z,68.83
2019-04-05T15:10:51.125Z,73.20
2019-04-05T15:13:19.078Z,76.77
2019-04-05T15:15:47.361Z,71.50
2019-04-05T15:18:15.633Z,72.97
2019-04-05T15:20:43.927Z,69.70
2019-04-05T15:23:31.333Z,71.62
2019-04-05T15:25:59.633Z,77.75
2019-04-05T15:28:27.899Z,76.60
2019-04-05T15:30:56.664Z,70.67
2019-04-05T15:33:27.740Z,77.77
2019-04-05T15:35:58.334Z,71.30
2019-04-05T15:38:26.263Z,71.70
2019-04-05T15:40:54.547Z,78.57
2019-04-05T15:43:22.820Z,82.20
2019-04-05T15:45:51.119Z,76.23
2019-04-05T15:48:20.481Z,76.27
2019-04-05T15:50:51.529Z,73.70
2019-04-05T15:53:19.436Z,75.27
2019-04-05T15:55:47.706Z,72.03
2019-04-05T15:58:16.004Z,77.23
2019-04-05T16:01:21.563Z,72.80
2019-04-05T16:03:49.870Z,74.03
2019-04-05T16:06:20.239Z,71.30
2019-04-05T16:08:48.528Z,72.53
2019-04-05T16:11:17.639Z,77.60
2019-04-05T16:13:46.035Z,75.10
2019-04-05T16:19:20.882Z,74.20
2019-04-05T16:21:49.153Z,72.27
2019-04-05T16:24:17.437Z,77.33
2019-04-05T16:26:45.714Z,68.43
2019-04-05T16:29:14.005Z,71.17
2019-04-05T16:31:42.307Z,73.30
2019-04-05T16:34:10.592Z,70.77
2019-04-05T16:36:38.880Z,71.27
2019-04-05T16:39:47.217Z,71.57
2019-04-05T16:42:15.624Z,76.33
2019-04-05T16:44:44.182Z,73.07
2019-04-05T16:49:59.795Z,81.00
2019-04-05T16:53:04.124Z,78.43
2019-04-05T16:55:51.562Z,76.80
2019-04-05T16:58:19.834Z,82.80
2019-04-05T17:00:48.200Z,76.80
2019-04-05T17:03:16.490Z,87.27
2019-04-05T17:05:44.796Z,85.65
2019-04-05T17:08:13.085Z,91.80
2019-04-05T17:10:43.821Z,91.50
2019-04-05T17:13:12.177Z,90.80
2019-04-05T17:15:40.482Z,88.92
2019-04-05T17:18:28.123Z,94.70
2019-04-05T17:20:56.402Z,90.10
2019-04-05T17:23:24.800Z,96.07
2019-04-05T17:26:30.497Z,89.30
2019-04-05T17:28:58.804Z,83.00
2019-04-05T17:31:27.146Z,95.87
2019-04-05T17:34:12.481Z,86.12
2019-04-05T17:36:41.040Z,89.37
2019-04-05T17:39:23.219Z,85.83
2019-04-05T17:41:51.490Z,95.97
2019-04-05T17:44:19.810Z,83.85
2019-04-05T17:46:48.101Z,93.40
2019-04-05T17:49:16.633Z,84.97
2019-04-05T17:51:44.987Z,92.57
2019-04-05T17:54:13.327Z,90.70
2019-04-05T17:57:19.090Z,92.20
2019-04-05T17:59:47.397Z,88.80
2019-04-05T18:02:15.766Z,84.65
2019-04-05T18:04:44.079Z,88.80
2019-04-05T18:07:12.393Z,85.00
2019-04-05T18:09:43.101Z,89.47
2019-04-05T18:12:11.480Z,89.20
2019-04-05T18:14:39.773Z,81.25
2019-04-05T18:17:08.792Z,81.45
2019-04-05T18:19:56.453Z,89.15
2019-04-05T18:22:24.757Z,89.20
2019-04-05T18:24:53.052Z,83.58
2019-04-05T18:27:21.369Z,81.67
2019-04-05T18:29:49.623Z,80.90
2019-04-05T18:32:17.914Z,88.17
2019-04-05T18:34:46.184Z,81.73
2019-04-05T18:37:14.513Z,78.75
2019-04-05T18:39:42.858Z,75.70
2019-04-05T18:42:11.241Z,74.07
2019-04-05T18:44:39.638Z,83.43
2019-04-05T18:47:24.799Z,78.77
2019-04-05T18:50:02.782Z,78.75
2019-04-05T18:52:23.141Z,79.10
2019-04-05T18:54:51.447Z,76.83
2019-04-05T18:57:19.766Z,73.97
2019-04-05T18:59:48.114Z,74.80
2019-04-05T19:04:59.888Z,69.13
2019-04-05T19:07:28.168Z,78.90
2019-04-05T19:09:56.471Z,80.47
2019-04-05T19:12:24.737Z,75.40
2019-04-05T19:15:06.669Z,68.80
2019-04-05T19:17:35.043Z,74.67
2019-04-05T19:20:03.456Z,71.25
2019-04-05T19:22:31.745Z,69.10
2019-04-05T19:25:00.037Z,75.22
2019-04-05T19:27:28.368Z,64.85
2019-04-05T19:29:56.650Z,68.25
2019-04-05T19:50:12.051Z,71.63
2019-04-05T19:52:40.337Z,71.57
2019-04-05T19:55:08.777Z,66.05
2019-04-05T19:57:37.059Z,63.30
2019-04-05T20:00:42.614Z,69.60
2019-04-05T20:03:10.894Z,63.83
2019-04-05T20:05:39.187Z,68.40
2019-04-05T20:08:07.487Z,58.87
2019-04-05T20:10:35.767Z,68.00
2019-04-05T20:13:04.044Z,63.90
2019-04-05T20:15:32.341Z,62.23
2019-04-05T20:18:00.634Z,67.07
2019-04-05T20:20:29.690Z,59.75
2019-04-05T20:22:57.977Z,61.05
2019-04-05T20:25:26.249Z,64.53
2019-04-05T20:27:54.546Z,65.37
2019-04-05T20:30:22.825Z,61.55
2019-04-05T20:32:51.112Z,67.62
2019-04-05T20:35:19.383Z,65.63
2019-04-05T20:37:47.668Z,61.13
2019-04-05T20:40:15.951Z,59.23
2019-04-05T20:42:44.321Z,60.70
2019-04-05T20:45:12.773Z,71.57
2019-04-05T20:47:41.056Z,60.57
2019-04-05T20:50:09.354Z,60.93
2019-04-05T20:52:37.640Z,61.37
2019-04-05T20:55:43.716Z,58.90
2019-04-05T20:58:11.986Z,59.90
2019-04-05T21:00:40.289Z,58.53
2019-04-05T21:03:08.568Z,59.80
2019-04-05T21:05:36.856Z,53.80
2019-04-05T21:08:05.248Z,53.75
2019-04-05T21:10:33.519Z,57.87
2019-04-05T21:13:01.819Z,57.17
2019-04-05T21:15:30.110Z,61.95
2019-04-05T21:18:17.732Z,56.48
2019-04-05T21:20:46.187Z,54.67
2019-04-05T21:23:14.458Z,57.50
2019-04-05T21:25:42.742Z,58.47
2019-04-05T21:28:11.029Z,64.55
2019-04-05T21:30:39.308Z,60.52
2019-04-05T21:33:07.587Z,50.35
2019-04-05T21:35:35.870Z,56.90
2019-04-05T21:38:04.166Z,62.08
2019-04-05T21:40:32.512Z,65.08
2019-04-05T21:43:00.788Z,61.88
2019-04-05T21:45:29.060Z,53.80
2019-04-05T21:47:57.353Z,59.27
2019-04-05T21:50:25.668Z,62.67
2019-04-05T21:52:53.971Z,60.57
2019-04-05T21:55:22.240Z,64.87
2019-04-05T21:57:50.597Z,63.70
2019-04-05T22:00:57.345Z,56.90
2019-04-05T22:03:25.619Z,59.93
2019-04-05T22:05:53.892Z,55.90
2019-04-05T22:08:22.176Z,63.03
2019-04-05T22:10:50.465Z,66.40
2019-04-05T22:13:18.728Z,61.43
2019-04-05T22:15:47.038Z,66.23
2019-04-05T22:18:15.328Z,61.20
2019-04-05T22:20:43.610Z,59.70
2019-04-05T22:23:11.902Z,57.23
2019-04-05T22:25:40.179Z,67.17
2019-04-05T22:28:08.444Z,65.13
2019-04-05T22:30:36.801Z,56.77
2019-04-05T22:33:05.112Z,69.17
2019-04-05T22:35:33.385Z,68.10
2019-04-05T22:38:01.667Z,74.95
2019-04-05T22:40:29.965Z,68.53
2019-04-05T22:42:58.225Z,62.17
2019-04-05T22:45:26.506Z,65.00
2019-04-05T22:47:54.779Z,59.47
2019-04-05T22:50:40.276Z,64.97
2019-04-05T22:53:08.547Z,66.33
2019-04-05T22:55:36.823Z,60.10
2019-04-05T22:58:05.095Z,70.17
2019-04-05T23:00:33.379Z,73.20
2019-04-05T23:03:01.646Z,70.93
2019-04-05T23:05:29.917Z,72.13
2019-04-05T23:07:58.181Z,76.57
2019-04-05T23:10:26.459Z,76.55
2019-04-05T23:12:54.733Z,77.93
2019-04-05T23:15:23.045Z,79.33
2019-04-05T23:17:51.301Z,79.70
2019-04-05T23:20:19.576Z,82.57
2019-04-05T23:22:47.862Z,74.13
2019-04-05T23:25:21.733Z,74.47
2019-04-05T23:27:46.148Z,81.33
2019-04-05T23:30:51.970Z,72.13
2019-04-05T23:33:20.267Z,71.07
2019-04-05T23:35:48.543Z,77.80
2019-04-05T23:38:16.814Z,69.90
2019-04-05T23:40:45.117Z,75.23
2019-04-05T23:43:13.405Z,70.47
2019-04-05T23:45:41.685Z,72.70
2019-04-05T23:48:09.974Z,75.83
2019-04-05T23:50:38.270Z,71.40
2019-04-05T23:53:06.565Z,72.50
2019-04-05T23:55:34.850Z,76.07
2019-04-05T23:58:03.122Z,78.90
